sensor_id;sensor_type;location;lat;lon;timestamp;P1;durP1;ratioP1;P2;durP2;ratioP2
54935;SDS011;40838;50.676;7.838;2022-12-07T00:00:19;31.85;;;14.77;;
54935;SDS011;40838;50.676;7.838;2022-12-07T00:02:46;31.75;;;14.73;;
54935;SDS011;40838;50.676;7.838;2022-12-07T00:05:13;34.65;;;14.65;;
54935;SDS011;40838;50.676;7.838;2022-12-07T00:07:46;34.55;;;15.77;;
54935;SDS011;40838;50.676;7.838;2022-12-07T00:10:13;38.08;;;15.48;;
54935;SDS011;40838;50.676;7.838;2022-12-07T00:12:41;31.33;;;14.43;;
54935;SDS011;40838;50.676;7.838;2022-12-07T00:15:08;34.78;;;14.75;;
54935;SDS011;40838;50.676;7.838;2022-12-07T00:17:36;29.90;;;13.93;;
54935;SDS011;40838;50.676;7.838;2022-12-07T00:20:03;33.88;;;15.07;;
54935;SDS011;40838;50.676;7.838;2022-12-07T00:22:31;31.85;;;14.88;;
54935;SDS011;40838;50.676;7.838;2022-12-07T00:24:58;31.80;;;14.95;;
54935;SDS011;40838;50.676;7.838;2022-12-07T00:27:24;33.80;;;14.50;;
54935;SDS011;40838;50.676;7.838;2022-12-07T00:29:54;31.38;;;14.88;;
54935;SDS011;40838;50.676;7.838;2022-12-07T00:32:21;30.23;;;14.80;;
54935;SDS011;40838;50.676;7.838;2022-12-07T00:34:48;31.88;;;15.10;;
54935;SDS011;40838;50.676;7.838;2022-12-07T00:37:15;23.25;;;12.35;;
54935;SDS011;40838;50.676;7.838;2022-12-07T00:39:41;28.05;;;12.15;;
54935;SDS011;40838;50.676;7.838;2022-12-07T00:42:08;24.67;;;12.57;;
54935;SDS011;40838;50.676;7.838;2022-12-07T00:44:35;24.80;;;13.32;;
54935;SDS011;40838;50.676;7.838;2022-12-07T00:47:06;27.15;;;12.27;;
54935;SDS011;40838;50.676;7.838;2022-12-07T00:49:35;28.77;;;12.93;;
54935;SDS011;40838;50.676;7.838;2022-12-07T00:52:02;22.98;;;12.00;;
54935;SDS011;40838;50.676;7.838;2022-12-07T00:54:29;23.88;;;12.25;;
54935;SDS011;40838;50.676;7.838;2022-12-07T00:56:56;32.25;;;13.65;;
54935;SDS011;40838;50.676;7.838;2022-12-07T00:59:23;26.77;;;14.07;;
54935;SDS011;40838;50.676;7.838;2022-12-07T01:01:50;28.42;;;13.20;;
54935;SDS011;40838;50.676;7.838;2022-12-07T01:04:18;29.33;;;13.95;;
54935;SDS011;40838;50.676;7.838;2022-12-07T01:06:46;23.67;;;12.95;;
54935;SDS011;40838;50.676;7.838;2022-12-07T01:09:13;25.08;;;13.48;;
54935;SDS011;40838;50.676;7.838;2022-12-07T01:11:40;27.45;;;13.65;;
54935;SDS011;40838;50.676;7.838;2022-12-07T01:14:07;27.55;;;14.23;;
54935;SDS011;40838;50.676;7.838;2022-12-07T01:16:35;29.70;;;14.38;;
54935;SDS011;40838;50.676;7.838;2022-12-07T01:19:02;25.40;;;13.85;;
54935;SDS011;40838;50.676;7.838;2022-12-07T01:21:32;27.80;;;13.43;;
54935;SDS011;40838;50.676;7.838;2022-12-07T01:24:08;26.23;;;14.32;;
54935;SDS011;40838;50.676;7.838;2022-12-07T01:26:37;31.05;;;14.70;;
54935;SDS011;40838;50.676;7.838;2022-12-07T01:29:04;34.03;;;16.35;;
54935;SDS011;40838;50.676;7.838;2022-12-07T01:31:30;34.15;;;17.05;;
54935;SDS011;40838;50.676;7.838;2022-12-07T01:33:58;33.38;;;15.55;;
54935;SDS011;40838;50.676;7.838;2022-12-07T01:36:27;37.72;;;17.33;;
54935;SDS011;40838;50.676;7.838;2022-12-07T01:38:57;33.30;;;16.25;;
54935;SDS011;40838;50.676;7.838;2022-12-07T01:41:26;34.55;;;16.10;;
54935;SDS011;40838;50.676;7.838;2022-12-07T01:44:16;37.55;;;16.88;;
54935;SDS011;40838;50.676;7.838;2022-12-07T01:46:44;36.80;;;16.27;;
54935;SDS011;40838;50.676;7.838;2022-12-07T01:49:14;29.05;;;15.00;;
54935;SDS011;40838;50.676;7.838;2022-12-07T01:51:46;35.03;;;16.77;;
54935;SDS011;40838;50.676;7.838;2022-12-07T01:54:17;32.40;;;16.23;;
54935;SDS011;40838;50.676;7.838;2022-12-07T01:56:47;30.00;;;15.68;;
54935;SDS011;40838;50.676;7.838;2022-12-07T01:59:17;38.67;;;16.98;;
54935;SDS011;40838;50.676;7.838;2022-12-07T02:01:49;31.25;;;15.45;;
54935;SDS011;40838;50.676;7.838;2022-12-07T02:04:21;32.92;;;16.33;;
54935;SDS011;40838;50.676;7.838;2022-12-07T02:06:48;42.10;;;17.55;;
54935;SDS011;40838;50.676;7.838;2022-12-07T02:09:17;35.50;;;17.40;;
54935;SDS011;40838;50.676;7.838;2022-12-07T02:11:44;40.20;;;18.15;;
54935;SDS011;40838;50.676;7.838;2022-12-07T02:14:11;43.20;;;18.75;;
54935;SDS011;40838;50.676;7.838;2022-12-07T02:16:42;43.95;;;19.85;;
54935;SDS011;40838;50.676;7.838;2022-12-07T02:19:32;40.95;;;18.42;;
54935;SDS011;40838;50.676;7.838;2022-12-07T02:22:20;43.45;;;18.98;;
54935;SDS011;40838;50.676;7.838;2022-12-07T02:25:08;43.92;;;18.80;;
54935;SDS011;40838;50.676;7.838;2022-12-07T02:27:46;48.58;;;20.25;;
54935;SDS011;40838;50.676;7.838;2022-12-07T02:30:19;58.75;;;21.83;;
54935;SDS011;40838;50.676;7.838;2022-12-07T02:32:49;62.83;;;23.35;;
54935;SDS011;40838;50.676;7.838;2022-12-07T02:35:24;66.68;;;24.70;;
54935;SDS011;40838;50.676;7.838;2022-12-07T02:37:58;72.60;;;26.63;;
54935;SDS011;40838;50.676;7.838;2022-12-07T02:40:31;67.70;;;26.10;;
54935;SDS011;40838;50.676;7.838;2022-12-07T02:43:05;72.65;;;27.67;;
54935;SDS011;40838;50.676;7.838;2022-12-07T02:45:37;94.10;;;32.15;;
54935;SDS011;40838;50.676;7.838;2022-12-07T02:48:07;71.22;;;27.75;;
54935;SDS011;40838;50.676;7.838;2022-12-07T02:50:36;76.80;;;29.95;;
54935;SDS011;40838;50.676;7.838;2022-12-07T02:53:03;78.05;;;28.95;;
54935;SDS011;40838;50.676;7.838;2022-12-07T02:55:31;67.03;;;26.55;;
54935;SDS011;40838;50.676;7.838;2022-12-07T02:58:23;68.53;;;27.30;;
54935;SDS011;40838;50.676;7.838;2022-12-07T03:01:02;70.40;;;27.25;;
54935;SDS011;40838;50.676;7.838;2022-12-07T03:03:38;61.65;;;25.88;;
54935;SDS011;40838;50.676;7.838;2022-12-07T03:06:11;65.90;;;27.33;;
54935;SDS011;40838;50.676;7.838;2022-12-07T03:08:51;61.08;;;26.00;;
54935;SDS011;40838;50.676;7.838;2022-12-07T03:11:25;59.35;;;25.95;;
54935;SDS011;40838;50.676;7.838;2022-12-07T03:13:58;57.10;;;24.48;;
54935;SDS011;40838;50.676;7.838;2022-12-07T03:16:31;50.70;;;23.88;;
54935;SDS011;40838;50.676;7.838;2022-12-07T03:19:03;53.90;;;25.02;;
54935;SDS011;40838;50.676;7.838;2022-12-07T03:21:35;55.20;;;24.13;;
54935;SDS011;40838;50.676;7.838;2022-12-07T03:24:05;53.08;;;24.70;;
54935;SDS011;40838;50.676;7.838;2022-12-07T03:26:42;55.58;;;25.98;;
54935;SDS011;40838;50.676;7.838;2022-12-07T03:29:16;50.95;;;23.80;;
54935;SDS011;40838;50.676;7.838;2022-12-07T03:31:49;52.97;;;24.27;;
54935;SDS011;40838;50.676;7.838;2022-12-07T03:34:22;54.03;;;24.77;;
54935;SDS011;40838;50.676;7.838;2022-12-07T03:36:57;58.30;;;27.33;;
54935;SDS011;40838;50.676;7.838;2022-12-07T03:39:30;64.63;;;27.30;;
54935;SDS011;40838;50.676;7.838;2022-12-07T03:42:04;64.13;;;27.98;;
54935;SDS011;40838;50.676;7.838;2022-12-07T03:44:33;71.88;;;29.40;;
54935;SDS011;40838;50.676;7.838;2022-12-07T03:47:03;69.40;;;28.90;;
54935;SDS011;40838;50.676;7.838;2022-12-07T03:49:36;76.25;;;32.53;;
54935;SDS011;40838;50.676;7.838;2022-12-07T03:52:09;88.50;;;34.10;;
54935;SDS011;40838;50.676;7.838;2022-12-07T03:54:45;105.97;;;33.88;;
54935;SDS011;40838;50.676;7.838;2022-12-07T03:57:17;90.50;;;34.13;;
54935;SDS011;40838;50.676;7.838;2022-12-07T03:59:47;107.93;;;35.38;;
54935;SDS011;40838;50.676;7.838;2022-12-07T04:02:16;117.15;;;36.50;;
54935;SDS011;40838;50.676;7.838;2022-12-07T04:04:44;106.20;;;35.17;;
54935;SDS011;40838;50.676;7.838;2022-12-07T04:07:11;100.82;;;34.63;;
54935;SDS011;40838;50.676;7.838;2022-12-07T04:09:39;99.90;;;34.72;;
54935;SDS011;40838;50.676;7.838;2022-12-07T04:12:11;94.78;;;35.58;;
54935;SDS011;40838;50.676;7.838;2022-12-07T04:14:38;94.55;;;35.17;;
54935;SDS011;40838;50.676;7.838;2022-12-07T04:17:06;111.65;;;36.28;;
54935;SDS011;40838;50.676;7.838;2022-12-07T04:22:04;83.65;;;30.98;;
54935;SDS011;40838;50.676;7.838;2022-12-07T04:24:32;61.33;;;26.90;;
54935;SDS011;40838;50.676;7.838;2022-12-07T04:27:01;60.70;;;26.38;;
54935;SDS011;40838;50.676;7.838;2022-12-07T04:29:28;54.75;;;24.25;;
54935;SDS011;40838;50.676;7.838;2022-12-07T04:31:55;58.42;;;24.83;;
54935;SDS011;40838;50.676;7.838;2022-12-07T04:34:22;52.60;;;24.77;;
54935;SDS011;40838;50.676;7.838;2022-12-07T04:36:50;52.88;;;22.52;;
54935;SDS011;40838;50.676;7.838;2022-12-07T04:39:19;45.42;;;21.50;;
54935;SDS011;40838;50.676;7.838;2022-12-07T04:41:47;48.58;;;21.38;;
54935;SDS011;40838;50.676;7.838;2022-12-07T04:44:15;47.75;;;20.85;;
54935;SDS011;40838;50.676;7.838;2022-12-07T04:46:43;51.30;;;23.25;;
54935;SDS011;40838;50.676;7.838;2022-12-07T04:49:09;51.17;;;23.20;;
54935;SDS011;40838;50.676;7.838;2022-12-07T04:51:37;52.17;;;22.45;;
54935;SDS011;40838;50.676;7.838;2022-12-07T04:54:05;59.45;;;25.65;;
54935;SDS011;40838;50.676;7.838;2022-12-07T04:56:32;54.35;;;24.95;;
54935;SDS011;40838;50.676;7.838;2022-12-07T04:59:01;54.58;;;23.75;;
54935;SDS011;40838;50.676;7.838;2022-12-07T05:01:28;60.33;;;24.77;;
54935;SDS011;40838;50.676;7.838;2022-12-07T05:03:55;61.78;;;25.80;;
54935;SDS011;40838;50.676;7.838;2022-12-07T05:06:22;57.22;;;25.17;;
54935;SDS011;40838;50.676;7.838;2022-12-07T05:08:49;58.47;;;26.23;;
54935;SDS011;40838;50.676;7.838;2022-12-07T05:11:17;62.72;;;27.17;;
54935;SDS011;40838;50.676;7.838;2022-12-07T05:13:58;49.22;;;23.83;;
54935;SDS011;40838;50.676;7.838;2022-12-07T05:16:25;51.15;;;24.23;;
54935;SDS011;40838;50.676;7.838;2022-12-07T05:19:06;51.63;;;25.25;;
54935;SDS011;40838;50.676;7.838;2022-12-07T05:21:33;52.28;;;24.77;;
54935;SDS011;40838;50.676;7.838;2022-12-07T05:24:00;50.90;;;22.80;;
54935;SDS011;40838;50.676;7.838;2022-12-07T05:26:28;49.63;;;23.67;;
54935;SDS011;40838;50.676;7.838;2022-12-07T05:28:56;48.88;;;22.30;;
54935;SDS011;40838;50.676;7.838;2022-12-07T05:31:24;46.83;;;21.63;;
54935;SDS011;40838;50.676;7.838;2022-12-07T05:33:53;51.97;;;24.40;;
54935;SDS011;40838;50.676;7.838;2022-12-07T05:36:20;53.33;;;25.17;;
54935;SDS011;40838;50.676;7.838;2022-12-07T05:38:46;54.70;;;24.85;;
54935;SDS011;40838;50.676;7.838;2022-12-07T05:41:14;56.20;;;25.25;;
54935;SDS011;40838;50.676;7.838;2022-12-07T05:44:01;56.05;;;24.83;;
54935;SDS011;40838;50.676;7.838;2022-12-07T05:46:28;59.80;;;25.90;;
54935;SDS011;40838;50.676;7.838;2022-12-07T05:48:54;53.65;;;25.75;;
54935;SDS011;40838;50.676;7.838;2022-12-07T05:51:21;82.35;;;27.85;;
54935;SDS011;40838;50.676;7.838;2022-12-07T05:53:48;57.60;;;25.52;;
54935;SDS011;40838;50.676;7.838;2022-12-07T05:56:15;60.63;;;28.25;;
54935;SDS011;40838;50.676;7.838;2022-12-07T05:58:42;71.28;;;27.70;;
54935;SDS011;40838;50.676;7.838;2022-12-07T06:01:28;61.40;;;25.87;;
54935;SDS011;40838;50.676;7.838;2022-12-07T06:03:55;59.75;;;27.25;;
54935;SDS011;40838;50.676;7.838;2022-12-07T06:06:23;61.72;;;26.17;;
54935;SDS011;40838;50.676;7.838;2022-12-07T06:08:49;54.90;;;24.77;;
54935;SDS011;40838;50.676;7.838;2022-12-07T06:11:16;51.95;;;24.67;;
54935;SDS011;40838;50.676;7.838;2022-12-07T06:14:00;49.23;;;23.87;;
54935;SDS011;40838;50.676;7.838;2022-12-07T06:16:29;47.63;;;21.75;;
54935;SDS011;40838;50.676;7.838;2022-12-07T06:18:55;53.03;;;22.83;;
54935;SDS011;40838;50.676;7.838;2022-12-07T06:21:22;49.35;;;21.85;;
54935;SDS011;40838;50.676;7.838;2022-12-07T06:23:50;52.35;;;22.83;;
54935;SDS011;40838;50.676;7.838;2022-12-07T06:26:17;45.85;;;20.75;;
54935;SDS011;40838;50.676;7.838;2022-12-07T06:28:44;49.22;;;21.38;;
54935;SDS011;40838;50.676;7.838;2022-12-07T06:31:11;49.03;;;22.45;;
54935;SDS011;40838;50.676;7.838;2022-12-07T06:33:39;43.15;;;19.95;;
54935;SDS011;40838;50.676;7.838;2022-12-07T06:36:07;46.45;;;20.73;;
54935;SDS011;40838;50.676;7.838;2022-12-07T06:38:34;44.20;;;18.23;;
54935;SDS011;40838;50.676;7.838;2022-12-07T06:41:01;38.67;;;18.65;;
54935;SDS011;40838;50.676;7.838;2022-12-07T06:43:28;39.28;;;20.10;;
54935;SDS011;40838;50.676;7.838;2022-12-07T06:45:55;38.25;;;18.45;;
54935;SDS011;40838;50.676;7.838;2022-12-07T06:48:21;38.00;;;17.83;;
54935;SDS011;40838;50.676;7.838;2022-12-07T06:50:50;46.45;;;19.00;;
54935;SDS011;40838;50.676;7.838;2022-12-07T06:53:16;35.95;;;18.13;;
54935;SDS011;40838;50.676;7.838;2022-12-07T06:55:43;38.38;;;19.45;;
54935;SDS011;40838;50.676;7.838;2022-12-07T06:58:10;41.47;;;19.13;;
54935;SDS011;40838;50.676;7.838;2022-12-07T07:00:37;41.10;;;17.38;;
54935;SDS011;40838;50.676;7.838;2022-12-07T07:03:07;39.00;;;19.45;;
54935;SDS011;40838;50.676;7.838;2022-12-07T07:05:34;41.00;;;19.27;;
54935;SDS011;40838;50.676;7.838;2022-12-07T07:08:02;39.60;;;18.58;;
54935;SDS011;40838;50.676;7.838;2022-12-07T07:10:30;42.35;;;19.35;;
54935;SDS011;40838;50.676;7.838;2022-12-07T07:12:56;44.30;;;19.45;;
54935;SDS011;40838;50.676;7.838;2022-12-07T07:15:23;37.72;;;18.90;;
54935;SDS011;40838;50.676;7.838;2022-12-07T07:17:52;37.75;;;18.80;;
54935;SDS011;40838;50.676;7.838;2022-12-07T07:20:18;37.80;;;18.05;;
54935;SDS011;40838;50.676;7.838;2022-12-07T07:22:45;38.15;;;19.15;;
54935;SDS011;40838;50.676;7.838;2022-12-07T07:25:14;33.63;;;17.25;;
54935;SDS011;40838;50.676;7.838;2022-12-07T07:27:41;35.67;;;19.63;;
54935;SDS011;40838;50.676;7.838;2022-12-07T07:30:08;44.17;;;20.02;;
54935;SDS011;40838;50.676;7.838;2022-12-07T07:32:36;38.45;;;18.98;;
54935;SDS011;40838;50.676;7.838;2022-12-07T07:35:03;48.60;;;20.35;;
54935;SDS011;40838;50.676;7.838;2022-12-07T07:37:31;35.33;;;19.08;;
54935;SDS011;40838;50.676;7.838;2022-12-07T07:39:58;36.42;;;18.48;;
54935;SDS011;40838;50.676;7.838;2022-12-07T07:42:26;37.08;;;18.88;;
54935;SDS011;40838;50.676;7.838;2022-12-07T07:44:53;36.97;;;19.70;;
54935;SDS011;40838;50.676;7.838;2022-12-07T07:47:19;42.53;;;21.35;;
54935;SDS011;40838;50.676;7.838;2022-12-07T07:49:46;35.83;;;18.48;;
54935;SDS011;40838;50.676;7.838;2022-12-07T07:52:13;40.15;;;19.13;;
54935;SDS011;40838;50.676;7.838;2022-12-07T07:54:40;41.72;;;20.10;;
54935;SDS011;40838;50.676;7.838;2022-12-07T07:57:09;43.55;;;21.38;;
54935;SDS011;40838;50.676;7.838;2022-12-07T07:59:39;37.42;;;17.90;;
54935;SDS011;40838;50.676;7.838;2022-12-07T08:02:07;35.95;;;18.05;;
54935;SDS011;40838;50.676;7.838;2022-12-07T08:04:39;36.67;;;17.73;;
54935;SDS011;40838;50.676;7.838;2022-12-07T08:07:07;40.13;;;17.70;;
54935;SDS011;40838;50.676;7.838;2022-12-07T08:09:33;31.95;;;17.63;;
54935;SDS011;40838;50.676;7.838;2022-12-07T08:12:00;34.28;;;14.82;;
54935;SDS011;40838;50.676;7.838;2022-12-07T08:14:27;26.65;;;13.85;;
54935;SDS011;40838;50.676;7.838;2022-12-07T08:16:56;27.35;;;13.73;;
54935;SDS011;40838;50.676;7.838;2022-12-07T08:19:23;22.83;;;12.88;;
54935;SDS011;40838;50.676;7.838;2022-12-07T08:21:50;22.73;;;12.70;;
54935;SDS011;40838;50.676;7.838;2022-12-07T08:24:17;25.52;;;13.50;;
54935;SDS011;40838;50.676;7.838;2022-12-07T08:26:44;30.05;;;14.02;;
54935;SDS011;40838;50.676;7.838;2022-12-07T08:29:11;27.10;;;14.35;;
54935;SDS011;40838;50.676;7.838;2022-12-07T08:31:38;24.25;;;14.10;;
54935;SDS011;40838;50.676;7.838;2022-12-07T08:34:06;24.63;;;13.43;;
54935;SDS011;40838;50.676;7.838;2022-12-07T08:36:33;24.90;;;14.82;;
54935;SDS011;40838;50.676;7.838;2022-12-07T08:39:00;30.40;;;15.57;;
54935;SDS011;40838;50.676;7.838;2022-12-07T08:41:27;29.27;;;15.70;;
54935;SDS011;40838;50.676;7.838;2022-12-07T08:43:53;31.45;;;16.40;;
54935;SDS011;40838;50.676;7.838;2022-12-07T08:46:21;27.77;;;15.75;;
54935;SDS011;40838;50.676;7.838;2022-12-07T08:48:52;28.58;;;15.60;;
54935;SDS011;40838;50.676;7.838;2022-12-07T08:51:23;29.92;;;15.15;;
54935;SDS011;40838;50.676;7.838;2022-12-07T08:53:50;33.38;;;15.05;;
54935;SDS011;40838;50.676;7.838;2022-12-07T08:56:18;34.80;;;17.55;;
54935;SDS011;40838;50.676;7.838;2022-12-07T08:58:46;38.00;;;17.10;;
54935;SDS011;40838;50.676;7.838;2022-12-07T09:01:14;41.38;;;19.52;;
54935;SDS011;40838;50.676;7.838;2022-12-07T09:03:41;35.00;;;17.00;;
54935;SDS011;40838;50.676;7.838;2022-12-07T09:06:07;32.05;;;17.15;;
54935;SDS011;40838;50.676;7.838;2022-12-07T09:08:36;35.28;;;17.63;;
54935;SDS011;40838;50.676;7.838;2022-12-07T09:11:07;37.20;;;15.32;;
54935;SDS011;40838;50.676;7.838;2022-12-07T09:13:34;33.53;;;16.63;;
54935;SDS011;40838;50.676;7.838;2022-12-07T09:16:01;27.73;;;14.13;;
54935;SDS011;40838;50.676;7.838;2022-12-07T09:18:28;27.73;;;13.52;;
54935;SDS011;40838;50.676;7.838;2022-12-07T09:20:56;26.58;;;13.27;;
54935;SDS011;40838;50.676;7.838;2022-12-07T09:23:23;24.60;;;13.23;;
54935;SDS011;40838;50.676;7.838;2022-12-07T09:25:51;28.50;;;14.05;;
54935;SDS011;40838;50.676;7.838;2022-12-07T09:28:18;30.73;;;13.63;;
54935;SDS011;40838;50.676;7.838;2022-12-07T09:30:45;24.45;;;12.45;;
54935;SDS011;40838;50.676;7.838;2022-12-07T09:33:13;31.33;;;13.88;;
54935;SDS011;40838;50.676;7.838;2022-12-07T09:35:43;26.20;;;13.13;;
54935;SDS011;40838;50.676;7.838;2022-12-07T09:38:11;30.08;;;13.55;;
54935;SDS011;40838;50.676;7.838;2022-12-07T09:40:38;33.50;;;14.65;;
54935;SDS011;40838;50.676;7.838;2022-12-07T09:43:11;30.40;;;14.10;;
54935;SDS011;40838;50.676;7.838;2022-12-07T09:45:39;29.10;;;14.70;;
54935;SDS011;40838;50.676;7.838;2022-12-07T09:48:08;38.50;;;15.15;;
54935;SDS011;40838;50.676;7.838;2022-12-07T09:50:46;34.13;;;15.18;;
54935;SDS011;40838;50.676;7.838;2022-12-07T09:53:15;30.48;;;14.68;;
54935;SDS011;40838;50.676;7.838;2022-12-07T09:58:19;28.42;;;13.32;;
54935;SDS011;40838;50.676;7.838;2022-12-07T10:00:48;29.10;;;13.80;;
54935;SDS011;40838;50.676;7.838;2022-12-07T10:03:16;28.83;;;13.05;;
54935;SDS011;40838;50.676;7.838;2022-12-07T10:05:44;24.50;;;12.57;;
54935;SDS011;40838;50.676;7.838;2022-12-07T10:08:14;26.10;;;11.98;;
54935;SDS011;40838;50.676;7.838;2022-12-07T10:10:43;28.40;;;12.95;;
54935;SDS011;40838;50.676;7.838;2022-12-07T10:13:11;31.80;;;13.07;;
54935;SDS011;40838;50.676;7.838;2022-12-07T10:15:46;29.95;;;14.32;;
54935;SDS011;40838;50.676;7.838;2022-12-07T10:18:28;27.70;;;12.93;;
54935;SDS011;40838;50.676;7.838;2022-12-07T10:21:01;25.85;;;13.48;;
54935;SDS011;40838;50.676;7.838;2022-12-07T10:23:59;27.67;;;12.55;;
54935;SDS011;40838;50.676;7.838;2022-12-07T10:26:29;29.63;;;12.40;;
54935;SDS011;40838;50.676;7.838;2022-12-07T10:28:59;30.73;;;13.63;;
54935;SDS011;40838;50.676;7.838;2022-12-07T10:31:29;22.35;;;12.02;;
54935;SDS011;40838;50.676;7.838;2022-12-07T10:33:57;31.23;;;14.30;;
54935;SDS011;40838;50.676;7.838;2022-12-07T10:36:26;23.38;;;11.43;;
54935;SDS011;40838;50.676;7.838;2022-12-07T10:39:01;21.20;;;11.95;;
54935;SDS011;40838;50.676;7.838;2022-12-07T10:41:30;25.45;;;12.15;;
54935;SDS011;40838;50.676;7.838;2022-12-07T10:43:57;23.83;;;10.88;;
54935;SDS011;40838;50.676;7.838;2022-12-07T10:49:44;20.73;;;11.10;;
54935;SDS011;40838;50.676;7.838;2022-12-07T10:52:25;21.38;;;11.38;;
54935;SDS011;40838;50.676;7.838;2022-12-07T10:55:05;28.30;;;11.93;;
54935;SDS011;40838;50.676;7.838;2022-12-07T10:57:45;25.48;;;11.30;;
54935;SDS011;40838;50.676;7.838;2022-12-07T11:00:21;20.80;;;11.85;;
54935;SDS011;40838;50.676;7.838;2022-12-07T11:03:03;24.80;;;11.55;;
54935;SDS011;40838;50.676;7.838;2022-12-07T11:05:51;18.83;;;10.52;;
54935;SDS011;40838;50.676;7.838;2022-12-07T11:08:32;20.90;;;10.88;;
54935;SDS011;40838;50.676;7.838;2022-12-07T11:11:09;22.30;;;11.52;;
54935;SDS011;40838;50.676;7.838;2022-12-07T11:13:44;20.33;;;10.68;;
54935;SDS011;40838;50.676;7.838;2022-12-07T11:16:31;22.17;;;10.05;;
54935;SDS011;40838;50.676;7.838;2022-12-07T11:19:20;21.40;;;10.75;;
54935;SDS011;40838;50.676;7.838;2022-12-07T11:22:03;26.60;;;10.02;;
54935;SDS011;40838;50.676;7.838;2022-12-07T11:24:38;22.38;;;10.52;;
54935;SDS011;40838;50.676;7.838;2022-12-07T11:27:15;23.50;;;10.73;;
54935;SDS011;40838;50.676;7.838;2022-12-07T11:29:53;26.67;;;12.15;;
54935;SDS011;40838;50.676;7.838;2022-12-07T11:32:40;19.57;;;9.63;;
54935;SDS011;40838;50.676;7.838;2022-12-07T11:35:18;26.33;;;10.50;;
54935;SDS011;40838;50.676;7.838;2022-12-07T11:37:55;28.10;;;10.18;;
54935;SDS011;40838;50.676;7.838;2022-12-07T11:40:29;23.27;;;12.02;;
54935;SDS011;40838;50.676;7.838;2022-12-07T11:43:02;23.38;;;10.70;;
54935;SDS011;40838;50.676;7.838;2022-12-07T11:45:37;16.95;;;10.10;;
54935;SDS011;40838;50.676;7.838;2022-12-07T11:48:10;18.05;;;9.70;;
54935;SDS011;40838;50.676;7.838;2022-12-07T11:50:46;21.85;;;9.82;;
54935;SDS011;40838;50.676;7.838;2022-12-07T11:53:18;27.58;;;10.50;;
54935;SDS011;40838;50.676;7.838;2022-12-07T11:55:52;20.10;;;10.97;;
54935;SDS011;40838;50.676;7.838;2022-12-07T11:58:35;20.13;;;9.23;;
54935;SDS011;40838;50.676;7.838;2022-12-07T12:01:11;25.50;;;10.15;;
54935;SDS011;40838;50.676;7.838;2022-12-07T12:03:46;25.45;;;12.45;;
54935;SDS011;40838;50.676;7.838;2022-12-07T12:06:15;20.85;;;11.55;;
54935;SDS011;40838;50.676;7.838;2022-12-07T12:08:45;20.65;;;11.30;;
54935;SDS011;40838;50.676;7.838;2022-12-07T12:11:18;24.08;;;10.07;;
54935;SDS011;40838;50.676;7.838;2022-12-07T12:14:03;9.23;;;5.57;;
54935;SDS011;40838;50.676;7.838;2022-12-07T12:16:48;9.88;;;4.03;;
54935;SDS011;40838;50.676;7.838;2022-12-07T12:19:30;14.33;;;5.27;;
54935;SDS011;40838;50.676;7.838;2022-12-07T12:22:03;11.32;;;4.28;;
54935;SDS011;40838;50.676;7.838;2022-12-07T12:24:40;8.40;;;4.70;;
54935;SDS011;40838;50.676;7.838;2022-12-07T12:27:15;10.20;;;4.40;;
54935;SDS011;40838;50.676;7.838;2022-12-07T12:29:51;6.68;;;3.60;;
54935;SDS011;40838;50.676;7.838;2022-12-07T12:32:20;7.60;;;3.13;;
54935;SDS011;40838;50.676;7.838;2022-12-07T12:35:19;7.25;;;3.08;;
54935;SDS011;40838;50.676;7.838;2022-12-07T12:37:49;6.38;;;3.28;;
54935;SDS011;40838;50.676;7.838;2022-12-07T12:40:43;7.75;;;3.45;;
54935;SDS011;40838;50.676;7.838;2022-12-07T12:49:30;9.20;;;4.35;;
54935;SDS011;40838;50.676;7.838;2022-12-07T12:55:18;14.65;;;5.07;;
54935;SDS011;40838;50.676;7.838;2022-12-07T13:03:55;10.48;;;5.70;;
54935;SDS011;40838;50.676;7.838;2022-12-07T13:06:32;15.93;;;5.30;;
54935;SDS011;40838;50.676;7.838;2022-12-07T13:09:03;13.75;;;6.50;;
54935;SDS011;40838;50.676;7.838;2022-12-07T13:11:31;18.75;;;7.68;;
54935;SDS011;40838;50.676;7.838;2022-12-07T13:17:07;13.20;;;6.00;;
54935;SDS011;40838;50.676;7.838;2022-12-07T13:25:23;9.52;;;4.15;;
54935;SDS011;40838;50.676;7.838;2022-12-07T13:27:59;7.72;;;3.00;;
54935;SDS011;40838;50.676;7.838;2022-12-07T13:30:28;3.10;;;2.08;;
54935;SDS011;40838;50.676;7.838;2022-12-07T13:32:57;5.53;;;1.80;;
54935;SDS011;40838;50.676;7.838;2022-12-07T13:35:33;2.92;;;1.63;;
54935;SDS011;40838;50.676;7.838;2022-12-07T13:38:04;3.28;;;1.40;;
54935;SDS011;40838;50.676;7.838;2022-12-07T13:40:32;2.40;;;1.45;;
54935;SDS011;40838;50.676;7.838;2022-12-07T13:43:00;5.45;;;2.10;;
54935;SDS011;40838;50.676;7.838;2022-12-07T13:45:28;2.00;;;1.58;;
54935;SDS011;40838;50.676;7.838;2022-12-07T13:48:16;4.78;;;2.30;;
54935;SDS011;40838;50.676;7.838;2022-12-07T13:50:56;7.18;;;4.97;;
54935;SDS011;40838;50.676;7.838;2022-12-07T13:53:24;8.10;;;3.28;;
54935;SDS011;40838;50.676;7.838;2022-12-07T13:55:53;7.18;;;3.60;;
54935;SDS011;40838;50.676;7.838;2022-12-07T13:58:20;5.80;;;3.63;;
54935;SDS011;40838;50.676;7.838;2022-12-07T14:00:48;5.85;;;2.92;;
54935;SDS011;40838;50.676;7.838;2022-12-07T14:03:30;7.25;;;4.43;;
54935;SDS011;40838;50.676;7.838;2022-12-07T14:06:10;7.10;;;4.20;;
54935;SDS011;40838;50.676;7.838;2022-12-07T14:08:41;7.03;;;3.08;;
54935;SDS011;40838;50.676;7.838;2022-12-07T14:11:09;4.93;;;2.58;;
54935;SDS011;40838;50.676;7.838;2022-12-07T14:13:51;8.38;;;3.50;;
54935;SDS011;40838;50.676;7.838;2022-12-07T14:16:27;6.60;;;2.78;;
54935;SDS011;40838;50.676;7.838;2022-12-07T14:18:55;5.35;;;3.85;;
54935;SDS011;40838;50.676;7.838;2022-12-07T14:21:25;4.75;;;3.33;;
54935;SDS011;40838;50.676;7.838;2022-12-07T14:24:08;7.32;;;3.22;;
54935;SDS011;40838;50.676;7.838;2022-12-07T14:26:37;8.93;;;3.60;;
54935;SDS011;40838;50.676;7.838;2022-12-07T14:29:21;6.13;;;3.50;;
54935;SDS011;40838;50.676;7.838;2022-12-07T14:31:56;9.48;;;5.05;;
54935;SDS011;40838;50.676;7.838;2022-12-07T14:34:25;9.65;;;4.35;;
54935;SDS011;40838;50.676;7.838;2022-12-07T14:36:53;7.47;;;4.28;;
54935;SDS011;40838;50.676;7.838;2022-12-07T14:39:20;7.38;;;4.32;;
54935;SDS011;40838;50.676;7.838;2022-12-07T14:41:47;8.25;;;4.40;;
54935;SDS011;40838;50.676;7.838;2022-12-07T14:44:17;7.40;;;3.92;;
54935;SDS011;40838;50.676;7.838;2022-12-07T14:46:46;8.20;;;4.38;;
54935;SDS011;40838;50.676;7.838;2022-12-07T14:49:13;7.65;;;4.20;;
54935;SDS011;40838;50.676;7.838;2022-12-07T14:51:40;6.85;;;3.90;;
54935;SDS011;40838;50.676;7.838;2022-12-07T14:54:12;7.35;;;4.03;;
54935;SDS011;40838;50.676;7.838;2022-12-07T14:56:42;11.52;;;5.00;;
54935;SDS011;40838;50.676;7.838;2022-12-07T14:59:09;8.00;;;3.95;;
54935;SDS011;40838;50.676;7.838;2022-12-07T15:01:36;5.80;;;4.47;;
54935;SDS011;40838;50.676;7.838;2022-12-07T15:04:04;9.23;;;4.22;;
54935;SDS011;40838;50.676;7.838;2022-12-07T15:06:31;7.45;;;4.63;;
54935;SDS011;40838;50.676;7.838;2022-12-07T15:08:57;8.18;;;4.80;;
54935;SDS011;40838;50.676;7.838;2022-12-07T15:11:26;13.25;;;5.65;;
54935;SDS011;40838;50.676;7.838;2022-12-07T15:13:53;19.35;;;10.05;;
54935;SDS011;40838;50.676;7.838;2022-12-07T15:16:36;18.40;;;11.85;;
54935;SDS011;40838;50.676;7.838;2022-12-07T15:19:06;27.77;;;13.13;;